Terminal Aerodrome Forecast
Issued by NWS Northern Indiana

Home | Current Version | Previous Version | Graphics & Text | Print | Product List | Glossary On
Versions: 1 2 3 4 5 6 7 8 9 10 11 12 13
000
FTUS43 KIWX 231728
TAFFWA
TAF
KFWA 231728Z 2318/2418 31005KT P6SM BKN100
     FM240100 06007KT P6SM BKN040 OVC100
     FM240600 06005KT P6SM BKN015
     FM241500 08007KT P6SM BKN020=

USA.gov is the U.S. government's official web portal to all federal, state and local government web resources and services.